createdAt,value
2018-12-15T00:00:04.177Z,100.00
2018-12-15T00:02:35.333Z,99.68
2018-12-15T00:05:05.849Z,100.00
2018-12-15T00:07:35.767Z,100.00
2018-12-15T00:10:07.193Z,100.00
2018-12-15T00:12:37.028Z,100.00
2018-12-15T00:15:08.341Z,100.00
2018-12-15T00:17:38.301Z,100.00
2018-12-15T00:20:08.214Z,100.00
2018-12-15T00:22:37.648Z,100.00
2018-12-15T00:25:07.171Z,100.00
2018-12-15T00:27:36.507Z,100.00
2018-12-15T00:30:06.275Z,100.00
2018-12-15T00:32:35.603Z,100.00
2018-12-15T00:35:05.510Z,100.00
2018-12-15T00:37:34.848Z,100.00
2018-12-15T00:40:04.672Z,100.00
2018-12-15T00:42:34.713Z,100.00
2018-12-15T00:45:05.583Z,100.00
2018-12-15T00:47:35.123Z,100.00
2018-12-15T00:50:04.577Z,100.00
2018-12-15T00:52:33.968Z,100.00
2018-12-15T00:55:03.366Z,100.00
2018-12-15T00:57:32.614Z,100.00
2018-12-15T01:00:02.010Z,100.00
2018-12-15T01:02:36.004Z,100.00
2018-12-15T01:05:05.624Z,99.85
2018-12-15T01:07:35.303Z,99.21
2018-12-15T01:10:06.160Z,98.90
2018-12-15T01:12:35.540Z,98.00
2018-12-15T01:15:05.299Z,97.43
2018-12-15T01:17:34.695Z,97.76
2018-12-15T01:20:04.154Z,98.23
2018-12-15T01:22:34.456Z,97.96
2018-12-15T01:25:04.526Z,97.51
2018-12-15T01:27:34.056Z,97.10
2018-12-15T01:30:03.436Z,96.64
2018-12-15T01:32:32.777Z,95.92
2018-12-15T01:35:02.150Z,95.42
2018-12-15T01:37:31.851Z,95.80
2018-12-15T01:40:01.597Z,95.43
2018-12-15T01:42:30.890Z,95.82
2018-12-15T01:45:00.237Z,95.05
2018-12-15T01:47:29.799Z,95.37
2018-12-15T01:49:59.311Z,95.08
2018-12-15T01:52:28.737Z,93.94
2018-12-15T01:54:58.150Z,92.43
2018-12-15T01:57:27.447Z,92.07
2018-12-15T01:59:56.874Z,91.27
2018-12-15T02:02:26.181Z,91.38
2018-12-15T02:04:55.458Z,91.31
2018-12-15T02:07:24.800Z,90.78
2018-12-15T02:09:54.131Z,91.33
2018-12-15T02:12:23.399Z,91.50
2018-12-15T02:14:52.726Z,91.93
2018-12-15T02:17:22.786Z,91.40
2018-12-15T02:19:52.484Z,91.81
2018-12-15T02:22:21.786Z,92.13
2018-12-15T02:24:51.031Z,91.39
2018-12-15T02:27:20.662Z,91.11
2018-12-15T02:29:49.963Z,91.16
2018-12-15T02:32:19.360Z,90.57
2018-12-15T02:34:48.746Z,91.25
2018-12-15T02:37:18.091Z,91.15
2018-12-15T02:39:47.382Z,90.89
2018-12-15T02:42:16.687Z,91.42
2018-12-15T02:44:45.966Z,91.33
2018-12-15T02:47:15.692Z,90.70
2018-12-15T02:49:45.109Z,90.27
2018-12-15T02:52:14.549Z,89.43
2018-12-15T02:54:43.819Z,89.66
2018-12-15T02:57:13.485Z,88.81
2018-12-15T02:59:42.996Z,90.04
2018-12-15T03:02:12.304Z,89.16
2018-12-15T03:04:41.534Z,89.76
2018-12-15T03:07:10.850Z,89.46
2018-12-15T03:09:40.207Z,89.73
2018-12-15T03:12:09.504Z,89.22
2018-12-15T03:14:40.033Z,89.07
2018-12-15T03:17:09.337Z,89.36
2018-12-15T03:19:38.783Z,88.79
2018-12-15T03:22:08.065Z,88.74
2018-12-15T03:24:37.534Z,88.62
2018-12-15T03:27:06.859Z,89.00
2018-12-15T03:29:36.186Z,88.50
2018-12-15T03:32:05.765Z,88.95
2018-12-15T03:34:35.050Z,89.44
2018-12-15T03:37:04.494Z,88.89
2018-12-15T03:39:34.357Z,88.94
2018-12-15T03:42:03.766Z,88.54
2018-12-15T03:44:33.119Z,89.23
2018-12-15T03:47:02.467Z,89.10
2018-12-15T03:49:31.783Z,89.22
2018-12-15T03:52:01.461Z,88.35
2018-12-15T03:54:30.996Z,88.35
2018-12-15T03:57:00.684Z,88.93
2018-12-15T03:59:30.387Z,88.96
2018-12-15T04:01:59.906Z,89.58
2018-12-15T04:04:30.558Z,88.13
2018-12-15T04:07:00.117Z,88.27
2018-12-15T04:09:29.500Z,88.00
2018-12-15T04:11:58.906Z,88.15
2018-12-15T04:14:28.193Z,88.06
2018-12-15T04:16:57.577Z,87.77
2018-12-15T04:19:26.964Z,86.77
2018-12-15T04:22:06.227Z,87.20
2018-12-15T04:24:35.688Z,88.08
2018-12-15T04:27:05.207Z,88.75
2018-12-15T04:29:34.425Z,88.52
2018-12-15T04:32:03.806Z,88.57
2018-12-15T04:34:33.031Z,88.56
2018-12-15T04:37:02.797Z,88.45
2018-12-15T04:39:32.266Z,88.43
2018-12-15T04:42:01.943Z,88.10
2018-12-15T04:44:31.224Z,88.48
2018-12-15T04:47:01.572Z,89.07
2018-12-15T04:49:30.852Z,88.34
2018-12-15T04:52:00.088Z,88.33
2018-12-15T04:54:29.488Z,88.34
2018-12-15T04:56:58.719Z,88.33
2018-12-15T04:59:28.097Z,88.51
2018-12-15T05:01:57.433Z,88.93
2018-12-15T05:04:26.728Z,88.79
2018-12-15T05:06:56.133Z,88.68
2018-12-15T05:09:25.473Z,88.88
2018-12-15T05:11:54.743Z,88.52
2018-12-15T05:14:24.044Z,89.10
2018-12-15T05:16:53.420Z,89.11
2018-12-15T05:19:22.674Z,89.00
2018-12-15T05:21:51.915Z,88.91
2018-12-15T05:24:21.182Z,89.46
2018-12-15T05:26:50.791Z,88.94
2018-12-15T05:29:21.289Z,89.20
2018-12-15T05:31:50.581Z,88.75
2018-12-15T05:34:19.964Z,89.62
2018-12-15T05:39:35.726Z,90.03
2018-12-15T05:42:05.510Z,89.65
2018-12-15T05:44:35.613Z,90.17
2018-12-15T05:47:04.828Z,89.02
2018-12-15T05:49:34.147Z,88.37
2018-12-15T05:52:03.627Z,89.02
2018-12-15T05:54:33.280Z,88.99
2018-12-15T05:57:02.570Z,88.49
2018-12-15T05:59:32.896Z,89.23
2018-12-15T06:02:03.669Z,89.33
2018-12-15T06:04:33.345Z,89.84
2018-12-15T06:07:02.630Z,89.54
2018-12-15T06:09:31.879Z,89.65
2018-12-15T06:12:03.233Z,90.38
2018-12-15T06:14:32.603Z,90.58
2018-12-15T06:17:01.915Z,89.90
2018-12-15T06:19:31.295Z,88.64
2018-12-15T06:22:00.562Z,89.49
2018-12-15T06:24:29.866Z,89.24
2018-12-15T06:27:00.602Z,89.34
2018-12-15T06:29:30.158Z,90.43
2018-12-15T06:31:59.415Z,91.18
2018-12-15T06:34:29.824Z,90.20
2018-12-15T06:36:59.168Z,90.73
2018-12-15T06:39:28.489Z,90.98
2018-12-15T06:42:00.222Z,91.41
2018-12-15T06:44:29.601Z,91.66
2018-12-15T06:46:58.895Z,90.80
2018-12-15T06:49:29.770Z,90.19
2018-12-15T06:51:59.192Z,90.48
2018-12-15T06:54:28.619Z,90.55
2018-12-15T06:56:59.383Z,90.94
2018-12-15T06:59:28.868Z,90.51
2018-12-15T07:02:01.150Z,89.54
2018-12-15T07:04:30.984Z,89.51
2018-12-15T07:07:00.285Z,89.18
2018-12-15T07:09:29.736Z,89.21
2018-12-15T07:11:59.160Z,88.91
2018-12-15T07:14:31.170Z,88.60
2018-12-15T07:17:00.705Z,88.81
2018-12-15T07:19:30.052Z,87.80
2018-12-15T07:21:59.375Z,87.00
2018-12-15T07:24:28.767Z,87.12
2018-12-15T07:26:58.234Z,86.07
2018-12-15T07:29:27.603Z,86.85
2018-12-15T07:31:56.955Z,86.89
2018-12-15T07:34:26.315Z,86.60
2018-12-15T07:36:55.572Z,87.02
2018-12-15T07:39:25.045Z,87.10
2018-12-15T07:41:54.893Z,87.41
2018-12-15T07:44:25.123Z,88.01
2018-12-15T07:46:54.428Z,88.51
2018-12-15T07:49:23.727Z,88.95
2018-12-15T07:51:53.099Z,89.43
2018-12-15T07:54:24.343Z,89.54
2018-12-15T07:56:53.751Z,90.06
2018-12-15T07:59:23.018Z,89.93
2018-12-15T08:01:52.379Z,89.48
2018-12-15T08:04:22.758Z,88.31
2018-12-15T08:06:52.121Z,88.05
2018-12-15T08:09:21.481Z,87.49
2018-12-15T08:11:56.320Z,87.36
2018-12-15T08:14:27.004Z,86.45
2018-12-15T08:16:56.382Z,86.66
2018-12-15T08:19:26.391Z,87.23
2018-12-15T08:21:56.717Z,86.75
2018-12-15T08:24:26.232Z,87.67
2018-12-15T08:26:58.874Z,88.46
2018-12-15T08:29:28.179Z,90.47
2018-12-15T08:31:57.760Z,90.52
2018-12-15T08:34:27.019Z,90.69
2018-12-15T08:36:56.404Z,91.37
2018-12-15T08:39:25.904Z,92.56
2018-12-15T08:41:55.371Z,93.70
2018-12-15T08:44:24.693Z,94.62
2018-12-15T08:46:54.111Z,95.51
2018-12-15T08:49:27.120Z,95.47
2018-12-15T08:51:56.561Z,96.19
2018-12-15T08:54:25.871Z,96.33
2018-12-15T08:57:01.398Z,95.91
2018-12-15T08:59:30.783Z,96.44
2018-12-15T09:02:00.846Z,96.57
2018-12-15T09:04:30.658Z,97.66
2018-12-15T09:06:59.924Z,99.93
2018-12-15T09:09:30.827Z,99.67
2018-12-15T09:12:00.073Z,98.04
2018-12-15T09:14:30.681Z,98.12
2018-12-15T09:16:59.949Z,98.61
2018-12-15T09:19:29.773Z,99.38
2018-12-15T09:22:00.167Z,99.56
2018-12-15T09:24:29.895Z,100.00
2018-12-15T09:26:59.775Z,100.00
2018-12-15T09:29:30.202Z,99.55
2018-12-15T09:31:59.515Z,98.86
2018-12-15T09:34:28.900Z,98.64
2018-12-15T09:36:59.188Z,98.94
2018-12-15T09:39:31.253Z,98.23
2018-12-15T09:42:02.145Z,98.01
2018-12-15T09:44:32.535Z,97.97
2018-12-15T09:47:01.945Z,98.17
2018-12-15T09:49:31.297Z,98.33
2018-12-15T09:52:11.494Z,99.28
2018-12-15T09:55:01.508Z,99.12
2018-12-15T09:57:39.785Z,99.25
2018-12-15T10:00:09.479Z,99.57
2018-12-15T10:02:38.849Z,99.62
2018-12-15T10:05:08.897Z,99.81
2018-12-15T10:07:38.128Z,99.25
2018-12-15T10:10:07.735Z,98.74
2018-12-15T10:12:37.121Z,98.77
2018-12-15T10:15:06.494Z,97.88
2018-12-15T10:17:35.963Z,98.59
2018-12-15T10:20:05.914Z,97.38
2018-12-15T10:22:35.203Z,95.75
2018-12-15T10:25:06.480Z,95.07
2018-12-15T10:27:39.090Z,94.39
2018-12-15T10:30:14.040Z,93.30
2018-12-15T10:32:50.068Z,91.74
2018-12-15T10:35:20.699Z,91.68
2018-12-15T10:37:49.999Z,91.72
2018-12-15T10:40:20.353Z,90.51
2018-12-15T10:42:52.279Z,89.76
2018-12-15T10:45:22.572Z,88.13
2018-12-15T10:47:51.878Z,89.59
2018-12-15T10:50:22.034Z,90.14
2018-12-15T10:52:54.552Z,89.97
2018-12-15T10:55:24.422Z,87.93
2018-12-15T10:57:53.703Z,88.35
2018-12-15T11:00:29.520Z,87.70
2018-12-15T11:03:03.324Z,86.44
2018-12-15T11:05:33.501Z,86.15
2018-12-15T11:08:04.164Z,86.20
2018-12-15T11:10:33.640Z,85.90
2018-12-15T11:13:04.842Z,85.97
2018-12-15T11:15:37.519Z,84.31
2018-12-15T11:18:07.697Z,85.72
2018-12-15T11:20:37.226Z,86.47
2018-12-15T11:23:07.797Z,86.89
2018-12-15T11:25:38.991Z,84.93
2018-12-15T11:28:08.463Z,85.04
2018-12-15T11:30:41.605Z,85.75
2018-12-15T11:33:16.336Z,85.13
2018-12-15T11:35:46.526Z,84.43
2018-12-15T11:38:17.507Z,85.72
2018-12-15T11:40:49.884Z,84.95
2018-12-15T11:43:23.309Z,85.85
2018-12-15T11:45:53.034Z,85.29
2018-12-15T11:48:23.078Z,84.81
2018-12-15T11:50:57.846Z,85.47
2018-12-15T11:53:36.726Z,86.38
2018-12-15T11:56:07.992Z,86.18
2018-12-15T11:58:38.804Z,87.35
2018-12-15T12:01:12.701Z,86.71
2018-12-15T12:03:42.340Z,87.35
2018-12-15T12:06:12.175Z,88.14
2018-12-15T12:08:44.166Z,87.62
2018-12-15T12:11:14.661Z,87.16
2018-12-15T12:13:44.253Z,86.73
2018-12-15T12:16:14.260Z,87.37
2018-12-15T12:18:43.600Z,87.65
2018-12-15T12:21:13.009Z,87.36
2018-12-15T12:23:44.114Z,88.21
2018-12-15T12:26:13.857Z,87.22
2018-12-15T12:28:43.430Z,85.81
2018-12-15T12:31:13.713Z,84.91
2018-12-15T12:33:43.424Z,83.45
2018-12-15T12:36:12.908Z,83.36
2018-12-15T12:38:48.209Z,84.31
2018-12-15T12:41:18.706Z,83.66
2018-12-15T12:43:48.360Z,84.36
2018-12-15T12:46:17.770Z,84.22
2018-12-15T12:48:46.984Z,84.23
2018-12-15T12:51:16.229Z,84.00
2018-12-15T12:53:48.302Z,82.95
2018-12-15T12:56:18.047Z,83.42
2018-12-15T12:58:47.579Z,83.82
2018-12-15T13:01:17.238Z,83.19
2018-12-15T13:03:47.410Z,83.68
2018-12-15T13:06:19.581Z,84.22
2018-12-15T13:08:50.758Z,85.76
2018-12-15T13:11:22.016Z,87.36
2018-12-15T13:13:53.594Z,88.43
2018-12-15T13:16:23.538Z,89.88
2018-12-15T13:18:56.051Z,90.82
2018-12-15T13:21:27.673Z,91.04
2018-12-15T13:23:57.794Z,90.77
2018-12-15T13:26:30.555Z,91.38
2018-12-15T13:29:01.834Z,91.82
2018-12-15T13:31:32.520Z,92.03
2018-12-15T13:34:08.292Z,92.60
2018-12-15T13:36:40.410Z,93.49
2018-12-15T13:39:14.942Z,92.59
2018-12-15T13:41:48.441Z,92.80
2018-12-15T13:44:23.647Z,93.53
2018-12-15T13:47:00.213Z,94.77
2018-12-15T14:05:28.180Z,94.92
2018-12-15T14:08:01.864Z,95.20
2018-12-15T14:10:34.331Z,94.63
2018-12-15T14:13:20.644Z,93.17
2018-12-15T14:15:58.293Z,92.39
2018-12-15T14:18:31.457Z,92.50
2018-12-15T14:21:12.264Z,92.04
2018-12-15T14:23:49.954Z,92.56
2018-12-15T14:26:22.336Z,91.90
2018-12-15T14:28:54.541Z,90.91
2018-12-15T14:34:11.153Z,91.51
2018-12-15T14:36:52.428Z,91.11
2018-12-15T14:39:23.581Z,90.59
2018-12-15T14:41:54.361Z,89.81
2018-12-15T14:44:24.054Z,89.62
2018-12-15T14:46:54.308Z,89.02
2018-12-15T14:49:24.420Z,89.41
2018-12-15T14:51:54.289Z,89.23
2018-12-15T14:54:24.103Z,88.95
2018-12-15T14:56:57.474Z,89.28
2018-12-15T14:59:27.176Z,88.50
2018-12-15T15:01:58.031Z,88.45
2018-12-15T15:04:28.807Z,88.41
2018-12-15T15:07:00.185Z,88.65
2018-12-15T15:09:31.494Z,88.33
2018-12-15T15:12:06.492Z,88.54
2018-12-15T15:14:36.469Z,88.18
2018-12-15T15:17:06.462Z,88.34
2018-12-15T15:19:36.482Z,87.44
2018-12-15T15:22:10.986Z,86.14
2018-12-15T15:24:43.687Z,84.77
2018-12-15T15:27:16.969Z,85.10
2018-12-15T15:29:50.210Z,85.94
2018-12-15T15:32:20.968Z,86.08
2018-12-15T15:34:52.715Z,86.02
2018-12-15T15:37:22.405Z,86.31
2018-12-15T15:39:52.678Z,86.52
2018-12-15T15:42:22.598Z,86.82
2018-12-15T15:44:51.912Z,86.98
2018-12-15T15:47:21.306Z,87.45
2018-12-15T15:49:50.671Z,87.67
2018-12-15T15:52:20.176Z,87.70
2018-12-15T15:54:49.619Z,87.60
2018-12-15T15:57:18.901Z,87.95
2018-12-15T15:59:48.123Z,88.19
2018-12-15T16:02:17.651Z,88.82
2018-12-15T16:04:47.300Z,88.67
2018-12-15T16:07:16.596Z,89.48
2018-12-15T16:09:47.145Z,89.06
2018-12-15T16:12:16.456Z,89.04
2018-12-15T16:14:45.802Z,88.95
2018-12-15T16:17:15.244Z,89.24
2018-12-15T16:19:44.821Z,89.62
2018-12-15T16:22:14.159Z,90.49
2018-12-15T16:24:44.544Z,90.21
2018-12-15T16:27:13.957Z,90.16
2018-12-15T16:29:43.296Z,90.45
2018-12-15T16:32:12.609Z,91.26
2018-12-15T16:34:41.898Z,91.46
2018-12-15T16:37:11.490Z,91.58
2018-12-15T16:39:40.862Z,91.11
2018-12-15T16:42:10.466Z,90.86
2018-12-15T16:44:41.104Z,90.94
2018-12-15T16:47:10.399Z,91.25
2018-12-15T16:49:39.726Z,91.29
2018-12-15T16:52:09.255Z,92.50
2018-12-15T16:54:38.861Z,92.56
2018-12-15T16:57:08.159Z,92.00
2018-12-15T16:59:37.837Z,92.44
2018-12-15T17:02:07.260Z,92.26
2018-12-15T17:04:37.627Z,92.08
2018-12-15T17:07:07.016Z,92.60
2018-12-15T17:09:36.341Z,92.54
2018-12-15T17:12:05.720Z,93.39
2018-12-15T17:14:36.688Z,92.29
2018-12-15T17:17:09.617Z,92.42
2018-12-15T17:19:38.985Z,93.19
2018-12-15T17:22:08.289Z,92.98
2018-12-15T17:24:37.693Z,93.28
2018-12-15T17:27:07.057Z,93.63
2018-12-15T17:29:36.361Z,93.29
2018-12-15T17:32:05.628Z,92.85
2018-12-15T17:34:35.237Z,93.33
2018-12-15T17:37:04.576Z,93.37
2018-12-15T17:39:34.342Z,92.53
2018-12-15T17:42:03.932Z,93.13
2018-12-15T17:44:33.283Z,92.55
2018-12-15T17:47:02.690Z,92.47
2018-12-15T17:49:32.182Z,92.11
2018-12-15T17:52:01.650Z,92.35
2018-12-15T17:54:30.995Z,92.28
2018-12-15T17:57:00.514Z,92.55
2018-12-15T17:59:29.842Z,92.72
2018-12-15T18:01:59.662Z,92.44
2018-12-15T18:04:29.000Z,93.24
2018-12-15T18:06:58.559Z,92.98
2018-12-15T18:09:28.103Z,93.87
2018-12-15T18:11:57.380Z,93.69
2018-12-15T18:14:26.704Z,92.99
2018-12-15T18:16:56.247Z,93.58
2018-12-15T18:19:25.911Z,94.03
2018-12-15T18:21:55.492Z,94.02
2018-12-15T18:24:24.773Z,93.67
2018-12-15T18:26:54.592Z,93.61
2018-12-15T18:29:24.003Z,93.44
2018-12-15T18:31:53.760Z,93.34
2018-12-15T18:34:23.185Z,92.86
2018-12-15T18:36:52.536Z,92.99
2018-12-15T18:39:21.959Z,93.00
2018-12-15T18:41:52.559Z,92.92
2018-12-15T18:44:21.849Z,93.05
2018-12-15T18:49:31.641Z,93.00
2018-12-15T18:52:01.583Z,93.25
2018-12-15T18:54:31.567Z,93.68
2018-12-15T18:57:01.179Z,94.16
2018-12-15T18:59:30.711Z,94.10
2018-12-15T19:02:02.234Z,94.19
2018-12-15T19:04:31.515Z,94.57
2018-12-15T19:07:01.064Z,94.99
2018-12-15T19:09:30.969Z,95.45
2018-12-15T19:12:00.722Z,95.39
2018-12-15T19:14:30.154Z,96.32
2018-12-15T19:16:59.433Z,96.42
2018-12-15T19:19:28.944Z,96.55
2018-12-15T19:21:58.249Z,96.95
2018-12-15T19:24:28.638Z,97.37
2018-12-15T19:26:57.921Z,98.36
2018-12-15T19:29:27.248Z,98.05
2018-12-15T19:31:56.598Z,98.53
2018-12-15T19:34:25.831Z,98.43
2018-12-15T19:36:55.194Z,98.60
2018-12-15T19:39:24.560Z,98.87
2018-12-15T19:41:54.043Z,98.97
2018-12-15T19:44:23.412Z,99.59
2018-12-15T19:46:52.647Z,99.48
2018-12-15T19:49:22.259Z,99.60
2018-12-15T19:51:52.658Z,99.84
2018-12-15T19:54:22.908Z,99.97
2018-12-15T19:56:52.312Z,100.00
2018-12-15T19:59:21.550Z,100.00
2018-12-15T20:01:50.933Z,100.00
2018-12-15T20:04:20.865Z,100.00
2018-12-15T20:06:50.508Z,100.00
2018-12-15T20:09:20.262Z,100.00
2018-12-15T20:11:50.127Z,100.00
2018-12-15T20:14:19.685Z,100.00
2018-12-15T20:16:49.077Z,100.00
2018-12-15T20:19:19.790Z,100.00
2018-12-15T20:21:49.997Z,100.00
2018-12-15T20:24:20.740Z,100.00
2018-12-15T20:26:50.173Z,100.00
2018-12-15T20:29:19.592Z,100.00
2018-12-15T20:31:49.235Z,100.00
2018-12-15T20:34:22.238Z,100.00
2018-12-15T20:36:51.561Z,100.00
2018-12-15T20:39:20.852Z,100.00
2018-12-15T20:41:50.131Z,100.00
2018-12-15T20:44:19.885Z,100.00
2018-12-15T20:46:49.345Z,100.00
2018-12-15T20:49:20.149Z,100.00
2018-12-15T20:51:49.575Z,100.00
2018-12-15T20:54:21.347Z,100.00
2018-12-15T20:56:50.687Z,100.00
2018-12-15T20:59:19.990Z,100.00
2018-12-15T21:01:49.777Z,100.00
2018-12-15T21:04:19.890Z,100.00
2018-12-15T21:06:49.303Z,100.00
2018-12-15T21:09:18.622Z,100.00
2018-12-15T21:11:48.040Z,100.00
2018-12-15T21:14:17.329Z,100.00
2018-12-15T21:16:46.767Z,100.00
2018-12-15T21:19:16.344Z,100.00
2018-12-15T21:21:49.418Z,100.00
2018-12-15T21:24:18.761Z,100.00
2018-12-15T21:26:49.309Z,100.00
2018-12-15T21:29:18.693Z,100.00
2018-12-15T21:31:48.116Z,100.00
2018-12-15T21:34:17.561Z,100.00
2018-12-15T21:36:47.003Z,100.00
2018-12-15T21:39:16.452Z,100.00
2018-12-15T21:41:46.013Z,100.00
2018-12-15T21:44:15.809Z,100.00
2018-12-15T21:46:45.233Z,100.00
2018-12-15T21:49:14.453Z,100.00
2018-12-15T21:51:44.183Z,100.00
2018-12-15T21:54:13.681Z,100.00
2018-12-15T21:56:43.409Z,100.00
2018-12-15T21:59:12.700Z,100.00
2018-12-15T22:01:41.938Z,100.00
2018-12-15T22:04:11.596Z,100.00
2018-12-15T22:06:41.136Z,100.00
2018-12-15T22:09:10.381Z,100.00
2018-12-15T22:11:39.843Z,100.00
2018-12-15T22:14:09.159Z,100.00
2018-12-15T22:16:38.463Z,100.00
2018-12-15T22:19:07.763Z,100.00
2018-12-15T22:21:37.368Z,100.00
2018-12-15T22:24:06.841Z,100.00
2018-12-15T22:26:36.225Z,100.00
2018-12-15T22:29:05.505Z,100.00
2018-12-15T22:31:35.703Z,100.00
2018-12-15T22:34:05.250Z,100.00
2018-12-15T22:36:34.669Z,100.00
2018-12-15T22:39:05.736Z,100.00
2018-12-15T22:41:35.103Z,100.00
2018-12-15T22:44:05.658Z,100.00
2018-12-15T22:46:35.300Z,100.00
2018-12-15T22:49:04.554Z,100.00
2018-12-15T22:51:35.054Z,100.00
2018-12-15T22:54:05.055Z,100.00
2018-12-15T22:56:34.323Z,100.00
2018-12-15T22:59:03.693Z,100.00
2018-12-15T23:01:37.408Z,100.00
2018-12-15T23:06:42.377Z,100.00
2018-12-15T23:09:11.838Z,100.00
2018-12-15T23:11:41.181Z,100.00
2018-12-15T23:14:10.746Z,100.00
2018-12-15T23:16:40.095Z,100.00
2018-12-15T23:19:09.436Z,100.00
2018-12-15T23:21:38.878Z,100.00
2018-12-15T23:24:08.195Z,100.00
2018-12-15T23:26:37.634Z,100.00
2018-12-15T23:29:07.326Z,100.00
2018-12-15T23:31:37.059Z,100.00
2018-12-15T23:34:06.323Z,100.00
2018-12-15T23:36:35.899Z,100.00
2018-12-15T23:39:07.871Z,100.00
2018-12-15T23:41:37.413Z,100.00
2018-12-15T23:44:06.653Z,100.00
2018-12-15T23:46:36.239Z,100.00
2018-12-15T23:49:05.718Z,100.00
2018-12-15T23:51:34.990Z,100.00
2018-12-15T23:54:04.259Z,100.00
2018-12-15T23:56:33.729Z,100.00
2018-12-15T23:59:03.025Z,100.00
